createdAt,value
2023-02-05T00:01:32.456Z,6.20
2023-02-05T00:06:35.791Z,5.10
2023-02-05T00:11:39.248Z,5.93
2023-02-05T00:16:43.962Z,6.68
2023-02-05T00:21:49.567Z,5.47
2023-02-05T00:26:53.130Z,5.60
2023-02-05T00:31:57.811Z,6.07
2023-02-05T00:37:01.200Z,6.13
2023-02-05T00:42:04.559Z,6.70
2023-02-05T00:47:11.362Z,5.47
2023-02-05T00:52:14.784Z,4.80
2023-02-05T00:57:18.107Z,4.55
2023-02-05T01:02:24.340Z,5.57
2023-02-05T01:07:27.637Z,4.53
2023-02-05T01:12:33.309Z,4.72
2023-02-05T01:17:38.116Z,4.10
2023-02-05T01:22:41.437Z,5.17
2023-02-05T01:27:44.951Z,5.93
2023-02-05T01:32:49.742Z,3.97
2023-02-05T01:37:53.029Z,4.45
2023-02-05T01:42:56.383Z,4.43
2023-02-05T01:48:02.705Z,6.22
2023-02-05T01:53:09.611Z,4.00
2023-02-05T01:58:14.273Z,5.65
2023-02-05T02:03:19.238Z,4.57
2023-02-05T02:08:22.702Z,4.88
2023-02-05T02:13:29.857Z,4.57
2023-02-05T02:18:36.600Z,4.93
2023-02-05T02:23:50.652Z,3.95
2023-02-05T02:29:01.752Z,4.45
2023-02-05T02:34:12.412Z,4.00
2023-02-05T02:39:22.297Z,3.87
2023-02-05T02:44:32.627Z,3.97
2023-02-05T02:49:40.399Z,4.03
2023-02-05T02:54:46.974Z,3.40
2023-02-05T02:59:55.729Z,4.63
2023-02-05T03:05:03.379Z,4.47
2023-02-05T03:10:13.846Z,3.92
2023-02-05T03:15:18.907Z,3.22
2023-02-05T03:20:26.622Z,3.38
2023-02-05T03:25:33.839Z,2.95
2023-02-05T03:30:51.217Z,5.38
2023-02-05T03:36:04.497Z,3.65
2023-02-05T03:41:16.793Z,4.10
2023-02-05T03:46:29.072Z,3.10
2023-02-05T03:51:41.180Z,5.13
2023-02-05T03:56:56.708Z,4.67
2023-02-05T04:02:04.810Z,4.03
2023-02-05T04:07:13.240Z,4.00
2023-02-05T04:12:17.763Z,3.70
2023-02-05T04:17:23.280Z,4.45
2023-02-05T04:22:27.008Z,3.28
2023-02-05T04:27:30.532Z,4.72
2023-02-05T04:32:38.853Z,4.03
2023-02-05T04:37:42.622Z,4.05
2023-02-05T04:42:46.895Z,4.07
2023-02-05T04:47:51.855Z,4.10
2023-02-05T04:52:55.414Z,6.83
2023-02-05T04:57:59.295Z,3.50
2023-02-05T05:03:04.208Z,7.13
2023-02-05T05:08:07.615Z,6.38
2023-02-05T05:13:10.933Z,6.35
2023-02-05T05:18:15.697Z,4.90
2023-02-05T05:23:19.057Z,6.55
2023-02-05T05:28:22.501Z,5.53
2023-02-05T05:33:28.408Z,5.97
2023-02-05T05:38:31.780Z,5.28
2023-02-05T05:43:50.025Z,7.10
2023-02-05T05:48:56.768Z,4.87
2023-02-05T05:54:00.191Z,4.47
2023-02-05T05:59:03.653Z,4.10
2023-02-05T06:04:08.667Z,3.90
2023-02-05T06:09:12.082Z,4.68
2023-02-05T06:14:15.848Z,4.23
2023-02-05T06:19:20.881Z,4.03
2023-02-05T06:24:24.351Z,4.38
2023-02-05T06:29:27.721Z,4.30
2023-02-05T06:34:32.768Z,4.60
2023-02-05T06:39:36.141Z,4.70
2023-02-05T06:44:39.457Z,5.28
2023-02-05T06:49:44.318Z,5.50
2023-02-05T06:54:47.745Z,5.30
2023-02-05T06:59:51.114Z,5.70
2023-02-05T07:04:55.885Z,5.18
2023-02-05T07:09:59.438Z,3.97
2023-02-05T07:15:02.916Z,4.53
2023-02-05T07:20:09.346Z,5.25
2023-02-05T07:25:13.150Z,12.13
2023-02-05T07:30:17.137Z,19.58
2023-02-05T07:35:22.294Z,14.05
2023-02-05T07:40:25.969Z,11.50
2023-02-05T07:45:29.705Z,8.43
2023-02-05T07:50:34.515Z,9.35
2023-02-05T07:55:37.995Z,6.35
2023-02-05T08:00:41.919Z,4.43
2023-02-05T08:05:46.687Z,4.68
2023-02-05T08:10:56.072Z,4.00
2023-02-05T08:15:59.736Z,3.47
2023-02-05T08:21:04.622Z,3.83
2023-02-05T08:26:08.008Z,4.10
2023-02-05T08:31:12.392Z,3.78
2023-02-05T08:36:17.196Z,3.70
2023-02-05T08:41:20.792Z,3.30
2023-02-05T08:46:31.566Z,3.58
2023-02-05T08:51:43.169Z,4.00
2023-02-05T08:56:50.304Z,4.03
2023-02-05T09:01:53.836Z,4.75
2023-02-05T09:06:59.454Z,4.20
2023-02-05T09:12:02.955Z,2.63
2023-02-05T09:17:07.431Z,3.30
2023-02-05T09:22:12.190Z,4.93
2023-02-05T09:27:15.494Z,4.38
2023-02-05T09:32:18.801Z,4.60
2023-02-05T09:37:23.752Z,4.53
2023-02-05T09:42:35.167Z,4.60
2023-02-05T09:47:48.658Z,4.97
2023-02-05T09:52:57.866Z,4.47
2023-02-05T09:58:07.452Z,5.00
2023-02-05T10:03:19.154Z,3.75
2023-02-05T10:08:32.336Z,3.40
2023-02-05T10:13:37.508Z,3.97
2023-02-05T10:18:52.776Z,3.63
2023-02-05T10:24:25.163Z,3.80
2023-02-05T10:29:36.419Z,3.40
2023-02-05T10:34:59.527Z,4.07
2023-02-05T10:40:12.032Z,3.40
2023-02-05T10:45:19.271Z,3.28
2023-02-05T10:50:29.038Z,3.08
2023-02-05T10:55:34.088Z,4.22
2023-02-05T11:00:37.982Z,3.10
2023-02-05T11:05:44.070Z,3.92
2023-02-05T11:10:54.324Z,3.53
2023-02-05T11:16:00.828Z,3.70
2023-02-05T11:21:08.902Z,5.63
2023-02-05T11:26:20.220Z,5.05
2023-02-05T11:31:27.183Z,6.22
2023-02-05T11:36:31.441Z,4.25
2023-02-05T11:41:48.441Z,4.03
2023-02-05T11:46:57.066Z,4.70
2023-02-05T11:52:01.827Z,4.05
2023-02-05T11:57:09.312Z,4.72
2023-02-05T12:02:33.438Z,5.30
2023-02-05T12:07:43.699Z,4.53
2023-02-05T12:12:57.044Z,4.70
2023-02-05T12:18:14.838Z,5.57
2023-02-05T12:23:33.013Z,4.30
2023-02-05T12:28:48.807Z,4.80
2023-02-05T12:34:11.290Z,3.30
2023-02-05T12:39:27.733Z,5.03
2023-02-05T12:44:44.367Z,3.40
2023-02-05T12:50:15.002Z,3.85
2023-02-05T12:55:33.323Z,5.30
2023-02-05T13:00:45.976Z,4.07
2023-02-05T13:05:52.360Z,3.80
2023-02-05T13:11:01.015Z,5.23
2023-02-05T13:16:10.741Z,5.07
2023-02-05T13:21:34.431Z,4.27
2023-02-05T13:26:58.845Z,5.57
2023-02-05T13:32:15.948Z,4.07
2023-02-05T13:37:34.998Z,3.87
2023-02-05T13:43:08.772Z,3.85
2023-02-05T13:48:38.209Z,3.20
2023-02-05T13:54:02.878Z,3.70
2023-02-05T13:59:11.574Z,3.50
2023-02-05T14:04:24.291Z,6.00
2023-02-05T14:09:35.213Z,3.80
2023-02-05T14:14:39.062Z,4.30
2023-02-05T14:19:59.015Z,4.30
2023-02-05T14:25:03.211Z,4.30
2023-02-05T14:30:51.847Z,5.13
2023-02-05T14:35:58.790Z,5.30
2023-02-05T14:41:05.447Z,4.60
2023-02-05T14:46:22.408Z,5.35
2023-02-05T14:51:32.561Z,5.70
2023-02-05T14:56:45.033Z,4.65
2023-02-05T15:01:54.628Z,5.05
2023-02-05T15:07:03.411Z,5.30
2023-02-05T15:12:33.332Z,4.90
2023-02-05T15:17:51.544Z,5.35
2023-02-05T15:23:06.137Z,9.20
2023-02-05T15:28:19.694Z,5.35
2023-02-05T15:33:35.927Z,5.75
2023-02-05T15:38:48.507Z,4.78
2023-02-05T15:44:02.996Z,4.18
2023-02-05T15:49:07.513Z,5.55
2023-02-05T15:54:20.359Z,3.80
2023-02-05T15:59:28.051Z,3.40
2023-02-05T16:04:33.324Z,3.75
2023-02-05T16:09:39.289Z,5.45
2023-02-05T16:14:43.798Z,5.68
2023-02-05T16:19:50.914Z,5.07
2023-02-05T16:24:59.149Z,5.17
2023-02-05T16:30:08.053Z,5.72
2023-02-05T16:35:21.516Z,6.07
2023-02-05T16:40:36.610Z,6.22
2023-02-05T16:45:40.396Z,7.30
2023-02-05T16:50:44.978Z,7.15
2023-02-05T16:55:51.061Z,8.33
2023-02-05T17:00:57.396Z,8.63
2023-02-05T17:06:03.085Z,10.60
2023-02-05T17:11:12.739Z,11.60
2023-02-05T17:16:40.394Z,9.98
2023-02-05T17:21:43.830Z,14.65
2023-02-05T17:26:48.660Z,17.00
2023-02-05T17:31:52.115Z,22.80
2023-02-05T17:36:55.515Z,26.97
2023-02-05T17:42:07.815Z,22.50
2023-02-05T17:47:11.300Z,31.50
2023-02-05T17:52:15.503Z,20.20
2023-02-05T17:57:22.350Z,9.80
2023-02-05T18:02:25.647Z,10.68
2023-02-05T18:07:35.068Z,12.52
2023-02-05T18:12:39.843Z,13.70
2023-02-05T18:17:43.139Z,11.35
2023-02-05T18:22:46.523Z,10.82
2023-02-05T18:27:51.403Z,11.00
2023-02-05T18:32:54.733Z,9.45
2023-02-05T18:37:58.426Z,10.33
2023-02-05T18:43:04.858Z,10.40
2023-02-05T18:48:08.183Z,11.37
2023-02-05T18:53:11.506Z,12.88
2023-02-05T18:58:16.176Z,11.00
2023-02-05T19:03:20.115Z,13.20
2023-02-05T19:08:23.385Z,13.48
2023-02-05T19:13:30.553Z,11.40
2023-02-05T19:18:34.043Z,13.55
2023-02-05T19:23:37.504Z,14.05
2023-02-05T19:28:43.595Z,14.23
2023-02-05T19:33:47.063Z,13.63
2023-02-05T19:38:51.014Z,16.97
2023-02-05T19:43:57.459Z,16.10
2023-02-05T19:49:03.053Z,17.58
2023-02-05T19:54:06.824Z,21.50
2023-02-05T19:59:12.742Z,20.75
2023-02-05T20:04:18.456Z,22.70
2023-02-05T20:09:21.756Z,23.20
2023-02-05T20:14:26.606Z,28.00
2023-02-05T20:19:30.073Z,27.23
2023-02-05T20:24:33.546Z,31.03
2023-02-05T20:29:55.683Z,27.30
2023-02-05T20:34:59.269Z,23.73
2023-02-05T20:40:02.813Z,24.73
2023-02-05T20:45:08.596Z,24.83
2023-02-05T20:50:11.993Z,24.92
2023-02-05T20:55:15.583Z,28.25
2023-02-05T21:00:23.518Z,27.98
2023-02-05T21:05:27.104Z,30.45
2023-02-05T21:10:31.814Z,25.83
2023-02-05T21:15:36.549Z,27.87
2023-02-05T21:20:40.745Z,25.88
2023-02-05T21:25:45.324Z,24.45
2023-02-05T21:30:51.445Z,24.27
2023-02-05T21:35:54.944Z,22.33
2023-02-05T21:40:58.421Z,19.42
2023-02-05T21:46:04.566Z,18.97
2023-02-05T21:51:08.585Z,18.57
2023-02-05T21:56:14.823Z,16.45
2023-02-05T22:01:22.243Z,13.10
2023-02-05T22:06:28.044Z,11.77
2023-02-05T22:11:31.717Z,16.58
2023-02-05T22:16:37.301Z,12.15
2023-02-05T22:21:43.953Z,12.67
2023-02-05T22:26:48.403Z,14.15
2023-02-05T22:31:54.517Z,18.23
2023-02-05T22:36:59.709Z,21.90
2023-02-05T22:42:04.446Z,18.08
2023-02-05T22:47:09.325Z,21.70
2023-02-05T22:52:12.599Z,15.88
2023-02-05T22:57:16.157Z,14.80
2023-02-05T23:02:20.986Z,20.83
2023-02-05T23:07:24.307Z,19.30
2023-02-05T23:12:27.601Z,13.55
2023-02-05T23:17:32.264Z,13.77
2023-02-05T23:22:35.570Z,12.43
2023-02-05T23:27:39.189Z,13.60
2023-02-05T23:32:44.038Z,13.30
2023-02-05T23:37:47.512Z,11.70
2023-02-05T23:42:50.841Z,15.32
2023-02-05T23:47:55.671Z,15.50
2023-02-05T23:52:59.032Z,14.00
2023-02-05T23:58:02.402Z,12.70
